createdAt,value
2018-05-07T00:00:09.165Z,99197
2018-05-07T00:02:38.880Z,99196
2018-05-07T00:05:08.610Z,99189
2018-05-07T00:07:38.365Z,99180
2018-05-07T00:10:08.075Z,99178
2018-05-07T00:12:37.794Z,99172
2018-05-07T00:15:07.586Z,99168
2018-05-07T00:17:37.294Z,99174
2018-05-07T00:20:07.048Z,99171
2018-05-07T00:22:36.755Z,99179
2018-05-07T00:25:06.555Z,99189
2018-05-07T00:27:36.301Z,99184
2018-05-07T00:30:06.060Z,99188
2018-05-07T00:32:35.801Z,99185
2018-05-07T00:35:05.561Z,99189
2018-05-07T00:37:35.277Z,99194
2018-05-07T00:40:05.029Z,99195
2018-05-07T00:42:34.754Z,99196
2018-05-07T00:45:04.476Z,99201
2018-05-07T00:47:34.228Z,99202
2018-05-07T00:50:03.975Z,99202
2018-05-07T00:52:33.809Z,99202
2018-05-07T00:55:15.364Z,99207
2018-05-07T00:57:45.071Z,99202
2018-05-07T01:00:14.775Z,99202
2018-05-07T01:02:44.532Z,99206
2018-05-07T01:05:14.267Z,99206
2018-05-07T01:07:44.025Z,99203
2018-05-07T01:10:13.730Z,99205
2018-05-07T01:12:43.447Z,99205
2018-05-07T01:15:13.219Z,99203
2018-05-07T01:17:42.919Z,99199
2018-05-07T01:20:12.619Z,99199
2018-05-07T01:22:42.374Z,99203
2018-05-07T01:25:12.094Z,99208
2018-05-07T01:27:41.824Z,99205
2018-05-07T01:30:11.569Z,99207
2018-05-07T01:32:41.282Z,99199
2018-05-07T01:35:11.025Z,99196
2018-05-07T01:37:40.761Z,99190
2018-05-07T01:40:10.469Z,99199
2018-05-07T01:42:40.227Z,99196
2018-05-07T01:45:09.949Z,99202
2018-05-07T01:47:39.726Z,99200
2018-05-07T01:50:09.396Z,99203
2018-05-07T01:52:39.101Z,99205
2018-05-07T01:55:08.836Z,99201
2018-05-07T01:57:38.605Z,99201
2018-05-07T02:00:08.353Z,99200
2018-05-07T02:02:38.115Z,99202
2018-05-07T02:05:07.851Z,99201
2018-05-07T02:07:37.580Z,99205
2018-05-07T02:10:07.315Z,99219
2018-05-07T02:12:37.128Z,99215
2018-05-07T02:15:06.883Z,99216
2018-05-07T02:17:36.577Z,99216
2018-05-07T02:20:06.280Z,99217
2018-05-07T02:22:36.032Z,99215
2018-05-07T02:25:05.768Z,99205
2018-05-07T02:27:35.519Z,99206
2018-05-07T02:30:05.219Z,99210
2018-05-07T02:32:34.947Z,99208
2018-05-07T02:35:04.715Z,99202
2018-05-07T02:37:34.415Z,99209
2018-05-07T02:40:04.166Z,99212
2018-05-07T02:42:33.924Z,99216
2018-05-07T02:45:03.680Z,99226
2018-05-07T02:47:33.460Z,99231
2018-05-07T02:50:03.155Z,99238
2018-05-07T02:52:32.849Z,99242
2018-05-07T02:55:02.617Z,99232
2018-05-07T02:57:32.361Z,99225
2018-05-07T03:00:02.059Z,99233
2018-05-07T03:02:31.829Z,99238
2018-05-07T03:05:01.559Z,99244
2018-05-07T03:07:31.380Z,99245
2018-05-07T03:10:01.106Z,99250
2018-05-07T03:12:30.832Z,99252
2018-05-07T03:15:00.596Z,99249
2018-05-07T03:17:30.335Z,99250
2018-05-07T03:20:00.106Z,99256
2018-05-07T03:22:29.853Z,99256
2018-05-07T03:24:59.563Z,99249
2018-05-07T03:27:29.325Z,99253
2018-05-07T03:29:59.037Z,99257
2018-05-07T03:32:28.756Z,99249
2018-05-07T03:34:58.517Z,99258
2018-05-07T03:37:28.226Z,99259
2018-05-07T03:39:57.936Z,99269
2018-05-07T03:42:27.659Z,99275
2018-05-07T03:44:57.420Z,99269
2018-05-07T03:47:27.173Z,99274
2018-05-07T03:49:56.855Z,99275
2018-05-07T03:52:26.583Z,99279
2018-05-07T03:54:56.265Z,99288
2018-05-07T03:57:25.965Z,99290
2018-05-07T03:59:55.704Z,99290
2018-05-07T04:02:25.392Z,99297
2018-05-07T04:04:55.178Z,99285
2018-05-07T04:07:24.954Z,99288
2018-05-07T04:09:54.657Z,99289
2018-05-07T04:12:24.456Z,99287
2018-05-07T04:14:54.146Z,99279
2018-05-07T04:17:36.433Z,99284
2018-05-07T04:20:17.945Z,99286
2018-05-07T04:22:59.291Z,99281
2018-05-07T04:25:29.041Z,99284
2018-05-07T04:27:58.800Z,99293
2018-05-07T04:30:28.547Z,99296
2018-05-07T04:32:58.230Z,99300
2018-05-07T04:35:27.969Z,99301
2018-05-07T04:37:57.714Z,99299
2018-05-07T04:40:27.413Z,99301
2018-05-07T04:42:57.150Z,99302
2018-05-07T04:45:26.861Z,99309
2018-05-07T04:47:56.595Z,99311
2018-05-07T04:50:26.331Z,99308
2018-05-07T04:52:56.072Z,99310
2018-05-07T04:55:25.816Z,99309
2018-05-07T04:57:55.543Z,99306
2018-05-07T05:00:25.311Z,99308
2018-05-07T05:02:55.082Z,99306
2018-05-07T05:05:24.870Z,99302
2018-05-07T05:07:54.606Z,99304
2018-05-07T05:10:24.341Z,99306
2018-05-07T05:12:54.138Z,99316
2018-05-07T05:15:23.897Z,99316
2018-05-07T05:17:53.657Z,99321
2018-05-07T05:20:23.413Z,99326
2018-05-07T05:22:53.167Z,99334
2018-05-07T05:25:22.938Z,99337
2018-05-07T05:27:52.654Z,99346
2018-05-07T05:30:22.344Z,99349
2018-05-07T05:32:52.077Z,99356
2018-05-07T05:35:21.770Z,99364
2018-05-07T05:37:51.474Z,99358
2018-05-07T05:40:21.239Z,99353
2018-05-07T05:42:51.032Z,99351
2018-05-07T05:45:20.821Z,99363
2018-05-07T05:47:50.574Z,99365
2018-05-07T05:50:20.387Z,99367
2018-05-07T05:52:50.101Z,99367
2018-05-07T05:55:19.810Z,99356
2018-05-07T05:57:49.529Z,99352
2018-05-07T06:00:19.238Z,99346
2018-05-07T06:02:48.937Z,99347
2018-05-07T06:05:18.691Z,99360
2018-05-07T06:07:48.433Z,99384
2018-05-07T06:10:18.230Z,99384
2018-05-07T06:12:47.960Z,99390
2018-05-07T06:15:17.699Z,99390
2018-05-07T06:17:47.483Z,99392
2018-05-07T06:20:17.291Z,99389
2018-05-07T06:22:47.050Z,99372
2018-05-07T06:25:16.780Z,99370
2018-05-07T06:27:46.508Z,99355
2018-05-07T06:30:16.236Z,99343
2018-05-07T06:32:46.000Z,99347
2018-05-07T06:35:15.763Z,99347
2018-05-07T06:37:45.515Z,99349
2018-05-07T06:40:15.217Z,99352
2018-05-07T06:42:44.991Z,99362
2018-05-07T06:45:14.718Z,99384
2018-05-07T06:47:44.553Z,99388
2018-05-07T06:50:14.324Z,99392
2018-05-07T06:52:44.049Z,99389
2018-05-07T06:55:13.827Z,99378
2018-05-07T06:57:43.572Z,99389
2018-05-07T07:00:13.316Z,99393
2018-05-07T07:02:43.142Z,99395
2018-05-07T07:05:12.807Z,99396
2018-05-07T07:07:42.641Z,99392
2018-05-07T07:10:12.460Z,99377
2018-05-07T07:12:42.204Z,99366
2018-05-07T07:15:11.939Z,99366
2018-05-07T07:17:41.685Z,99361
2018-05-07T07:20:11.506Z,99350
2018-05-07T07:22:41.216Z,99373
2018-05-07T07:25:11.048Z,99388
2018-05-07T07:27:40.853Z,99389
2018-05-07T07:30:10.580Z,99398
2018-05-07T07:32:40.291Z,99389
2018-05-07T07:35:10.004Z,99390
2018-05-07T07:37:39.774Z,99394
2018-05-07T07:40:09.590Z,99401
2018-05-07T07:42:39.345Z,99381
2018-05-07T07:45:09.116Z,99380
2018-05-07T07:47:38.905Z,99378
2018-05-07T07:50:08.655Z,99374
2018-05-07T07:52:38.415Z,99372
2018-05-07T07:55:08.237Z,99369
2018-05-07T07:57:38.013Z,99369
2018-05-07T08:00:07.891Z,99378
2018-05-07T08:02:37.741Z,99377
2018-05-07T08:05:07.483Z,99375
2018-05-07T08:07:37.252Z,99366
2018-05-07T08:10:07.066Z,99359
2018-05-07T08:12:36.884Z,99362
2018-05-07T08:15:06.826Z,99363
2018-05-07T08:17:36.565Z,99366
2018-05-07T08:20:06.262Z,99364
2018-05-07T08:22:36.140Z,99359
2018-05-07T08:25:06.026Z,99362
2018-05-07T08:27:35.848Z,99364
2018-05-07T08:30:05.573Z,99358
2018-05-07T08:32:35.285Z,99360
2018-05-07T08:35:05.124Z,99355
2018-05-07T08:37:34.898Z,99360
2018-05-07T08:40:04.779Z,99355
2018-05-07T08:42:34.533Z,99353
2018-05-07T08:45:04.298Z,99351
2018-05-07T08:47:34.038Z,99349
2018-05-07T08:50:03.779Z,99347
2018-05-07T08:52:33.527Z,99349
2018-05-07T08:55:03.307Z,99348
2018-05-07T08:57:33.043Z,99341
2018-05-07T09:00:02.837Z,99345
2018-05-07T09:02:32.561Z,99339
2018-05-07T09:05:02.244Z,99342
2018-05-07T09:07:32.042Z,99342
2018-05-07T09:10:01.715Z,99342
2018-05-07T09:12:31.477Z,99341
2018-05-07T09:15:01.262Z,99344
2018-05-07T09:17:31.054Z,99342
2018-05-07T09:20:00.957Z,99339
2018-05-07T09:22:30.678Z,99339
2018-05-07T09:25:00.419Z,99348
2018-05-07T09:27:30.195Z,99341
2018-05-07T09:29:59.933Z,99346
2018-05-07T09:32:29.685Z,99350
2018-05-07T09:34:59.422Z,99339
2018-05-07T09:37:29.206Z,99334
2018-05-07T09:39:58.949Z,99338
2018-05-07T09:42:28.725Z,99333
2018-05-07T09:44:58.428Z,99332
2018-05-07T09:47:28.154Z,99325
2018-05-07T09:49:57.927Z,99322
2018-05-07T09:52:27.687Z,99319
2018-05-07T09:54:57.477Z,99315
2018-05-07T09:57:27.181Z,99317
2018-05-07T09:59:56.939Z,99319
2018-05-07T10:02:26.783Z,99317
2018-05-07T10:04:56.520Z,99314
2018-05-07T10:07:26.280Z,99309
2018-05-07T10:09:56.006Z,99311
2018-05-07T10:12:25.713Z,99297
2018-05-07T10:14:55.421Z,99300
2018-05-07T10:17:25.150Z,99291
2018-05-07T10:19:54.951Z,99292
2018-05-07T10:22:24.701Z,99288
2018-05-07T10:24:54.474Z,99290
2018-05-07T10:27:24.195Z,99286
2018-05-07T10:29:53.981Z,99280
2018-05-07T10:32:23.737Z,99281
2018-05-07T10:34:53.493Z,99287
2018-05-07T10:37:23.281Z,99278
2018-05-07T10:39:52.987Z,99279
2018-05-07T10:42:22.770Z,99275
2018-05-07T10:44:52.532Z,99273
2018-05-07T10:47:22.355Z,99275
2018-05-07T10:49:52.143Z,99273
2018-05-07T10:52:21.850Z,99268
2018-05-07T10:54:51.576Z,99273
2018-05-07T10:57:21.311Z,99269
2018-05-07T10:59:51.013Z,99266
2018-05-07T11:02:20.743Z,99260
2018-05-07T11:04:50.465Z,99260
2018-05-07T11:07:20.236Z,99263
2018-05-07T11:09:49.929Z,99259
2018-05-07T11:12:19.754Z,99250
2018-05-07T11:14:49.453Z,99248
2018-05-07T11:17:19.182Z,99248
2018-05-07T11:19:49.078Z,99243
2018-05-07T11:22:18.729Z,99246
2018-05-07T11:24:48.437Z,99234
2018-05-07T11:27:18.253Z,99230
2018-05-07T11:29:47.979Z,99221
2018-05-07T11:32:17.736Z,99228
2018-05-07T11:34:47.496Z,99221
2018-05-07T11:37:17.288Z,99222
2018-05-07T11:39:47.033Z,99207
2018-05-07T11:42:16.767Z,99200
2018-05-07T11:44:46.462Z,99199
2018-05-07T11:47:16.221Z,99194
2018-05-07T11:49:45.945Z,99189
2018-05-07T11:52:15.620Z,99190
2018-05-07T11:54:45.382Z,99183
2018-05-07T11:57:15.145Z,99181
2018-05-07T11:59:44.899Z,99179
2018-05-07T12:02:14.667Z,99179
2018-05-07T12:04:44.399Z,99180
2018-05-07T12:07:14.135Z,99179
2018-05-07T12:09:43.847Z,99164
2018-05-07T12:12:13.615Z,99166
2018-05-07T12:14:43.418Z,99166
2018-05-07T12:17:13.141Z,99154
2018-05-07T12:19:42.890Z,99147
2018-05-07T12:22:12.616Z,99147
2018-05-07T12:24:42.400Z,99144
2018-05-07T12:27:12.166Z,99135
2018-05-07T12:29:41.874Z,99137
2018-05-07T12:32:11.645Z,99126
2018-05-07T12:34:41.353Z,99132
2018-05-07T12:37:11.030Z,99121
2018-05-07T12:39:40.768Z,99116
2018-05-07T12:42:10.484Z,99106
2018-05-07T12:44:40.249Z,99105
2018-05-07T12:47:09.989Z,99101
2018-05-07T12:49:39.724Z,99103
2018-05-07T12:52:09.445Z,99104
2018-05-07T12:54:39.144Z,99097
2018-05-07T12:57:08.865Z,99097
2018-05-07T12:59:38.624Z,99088
2018-05-07T13:02:08.409Z,99086
2018-05-07T13:04:38.135Z,99088
2018-05-07T13:07:07.898Z,99087
2018-05-07T13:09:37.630Z,99087
2018-05-07T13:12:07.303Z,99083
2018-05-07T13:14:37.013Z,99086
2018-05-07T13:17:08.789Z,99083
2018-05-07T13:19:38.566Z,99084
2018-05-07T13:22:08.312Z,99075
2018-05-07T13:24:38.056Z,99075
2018-05-07T13:27:07.839Z,99063
2018-05-07T13:29:37.539Z,99061
2018-05-07T13:32:07.276Z,99056
2018-05-07T13:34:37.024Z,99053
2018-05-07T13:37:06.738Z,99053
2018-05-07T13:39:36.572Z,99051
2018-05-07T13:42:06.349Z,99047
2018-05-07T13:44:36.067Z,99046
2018-05-07T13:47:05.863Z,99045
2018-05-07T13:49:35.605Z,99044
2018-05-07T13:52:05.362Z,99044
2018-05-07T13:54:35.079Z,99038
2018-05-07T13:57:04.832Z,99035
2018-05-07T13:59:34.561Z,99029
2018-05-07T14:02:04.267Z,99040
2018-05-07T14:04:34.912Z,99033
2018-05-07T14:07:04.639Z,99019
2018-05-07T14:09:34.362Z,99017
2018-05-07T14:12:04.106Z,99024
2018-05-07T14:14:33.841Z,99020
2018-05-07T14:17:03.631Z,99025
2018-05-07T14:19:33.297Z,99024
2018-05-07T14:22:02.997Z,99026
2018-05-07T14:24:32.767Z,99028
2018-05-07T14:27:02.536Z,99028
2018-05-07T14:29:32.279Z,99030
2018-05-07T14:32:02.078Z,99024
2018-05-07T14:34:31.802Z,99028
2018-05-07T14:37:01.532Z,99026
2018-05-07T14:39:31.239Z,99027
2018-05-07T14:42:01.027Z,99027
2018-05-07T14:44:30.753Z,99022
2018-05-07T14:47:00.475Z,99015
2018-05-07T14:49:30.225Z,99015
2018-05-07T14:51:59.961Z,99012
2018-05-07T14:54:29.664Z,99011
2018-05-07T14:56:59.376Z,99012
2018-05-07T14:59:29.109Z,99012
2018-05-07T15:01:58.855Z,99012
2018-05-07T15:04:28.569Z,99004
2018-05-07T15:06:58.347Z,98996
2018-05-07T15:09:28.054Z,98997
2018-05-07T15:11:57.792Z,98995
2018-05-07T15:14:27.579Z,98993
2018-05-07T15:16:57.307Z,98985
2018-05-07T15:19:27.059Z,98987
2018-05-07T15:21:56.771Z,98984
2018-05-07T15:24:26.531Z,98971
2018-05-07T15:26:56.370Z,98974
2018-05-07T15:29:26.058Z,98982
2018-05-07T15:31:55.770Z,98974
2018-05-07T15:34:25.520Z,98974
2018-05-07T15:36:55.252Z,98972
2018-05-07T15:39:25.013Z,98967
2018-05-07T15:41:54.715Z,98964
2018-05-07T15:44:24.422Z,98967
2018-05-07T15:46:54.179Z,98970
2018-05-07T15:49:23.921Z,98965
2018-05-07T15:51:53.677Z,98960
2018-05-07T15:54:23.470Z,98958
2018-05-07T15:56:53.203Z,98963
2018-05-07T15:59:22.934Z,98951
2018-05-07T16:01:52.638Z,98952
2018-05-07T16:04:22.357Z,98959
2018-05-07T16:06:52.074Z,98950
2018-05-07T16:09:21.768Z,98957
2018-05-07T16:11:51.576Z,98954
2018-05-07T16:14:21.259Z,98954
2018-05-07T16:16:51.023Z,98961
2018-05-07T16:19:20.715Z,98966
2018-05-07T16:21:50.448Z,98967
2018-05-07T16:24:20.204Z,98967
2018-05-07T16:26:49.913Z,98966
2018-05-07T16:29:19.602Z,98969
2018-05-07T16:31:49.284Z,98969
2018-05-07T16:34:18.986Z,98976
2018-05-07T16:36:48.723Z,98972
2018-05-07T16:39:18.419Z,98973
2018-05-07T16:41:48.102Z,98970
2018-05-07T16:44:17.861Z,98971
2018-05-07T16:46:47.580Z,98970
2018-05-07T16:49:17.294Z,98970
2018-05-07T16:51:47.007Z,98968
2018-05-07T16:54:16.737Z,98970
2018-05-07T16:56:46.504Z,98967
2018-05-07T16:59:16.200Z,98973
2018-05-07T17:01:45.957Z,98970
2018-05-07T17:04:15.671Z,98972
2018-05-07T17:06:45.441Z,98974
2018-05-07T17:09:15.246Z,98978
2018-05-07T17:11:44.919Z,98980
2018-05-07T17:14:14.734Z,98979
2018-05-07T17:16:44.419Z,98986
2018-05-07T17:19:14.144Z,98994
2018-05-07T17:21:43.896Z,98992
2018-05-07T17:24:13.762Z,98990
2018-05-07T17:26:43.479Z,98990
2018-05-07T17:29:13.230Z,98992
2018-05-07T17:31:42.969Z,98993
2018-05-07T17:34:12.707Z,98992
2018-05-07T17:36:42.415Z,98997
2018-05-07T17:39:12.186Z,99002
2018-05-07T17:41:41.892Z,99004
2018-05-07T17:44:23.335Z,99010
2018-05-07T17:47:04.865Z,99012
2018-05-07T17:49:34.592Z,99020
2018-05-07T17:52:04.340Z,99018
2018-05-07T17:54:34.194Z,99018
2018-05-07T17:57:03.915Z,99022
2018-05-07T17:59:33.659Z,99020
2018-05-07T18:02:03.378Z,99021
2018-05-07T18:04:33.484Z,99026
2018-05-07T18:07:03.263Z,99025
2018-05-07T18:09:32.982Z,99028
2018-05-07T18:12:02.758Z,99026
2018-05-07T18:14:32.475Z,99024
2018-05-07T18:17:02.221Z,99028
2018-05-07T18:19:32.051Z,99034
2018-05-07T18:22:01.802Z,99037
2018-05-07T18:24:31.609Z,99041
2018-05-07T18:27:01.373Z,99036
2018-05-07T18:29:31.209Z,99037
2018-05-07T18:32:01.176Z,99033
2018-05-07T18:34:31.402Z,99037
2018-05-07T18:37:01.236Z,99044
2018-05-07T18:39:31.009Z,99048
2018-05-07T18:42:00.893Z,99051
2018-05-07T18:44:30.811Z,99053
2018-05-07T18:47:00.576Z,99049
2018-05-07T18:49:30.283Z,99052
2018-05-07T18:52:00.002Z,99053
2018-05-07T18:54:29.729Z,99056
2018-05-07T18:56:59.518Z,99061
2018-05-07T18:59:29.332Z,99061
2018-05-07T19:01:59.166Z,99071
2018-05-07T19:04:28.994Z,99071
2018-05-07T19:06:59.042Z,99071
2018-05-07T19:09:29.066Z,99064
2018-05-07T19:11:58.865Z,99071
2018-05-07T19:14:28.694Z,99070
2018-05-07T19:16:58.527Z,99067
2018-05-07T19:19:28.425Z,99059
2018-05-07T19:21:58.243Z,99063
2018-05-07T19:24:27.992Z,99068
2018-05-07T19:26:57.734Z,99060
2018-05-07T19:29:27.462Z,99058
2018-05-07T19:31:57.197Z,99060
2018-05-07T19:34:26.935Z,99059
2018-05-07T19:36:56.642Z,99066
2018-05-07T19:39:26.394Z,99065
2018-05-07T19:41:56.105Z,99059
2018-05-07T19:44:25.859Z,99061
2018-05-07T19:46:55.654Z,99059
2018-05-07T19:49:25.376Z,99060
2018-05-07T19:51:55.162Z,99059
2018-05-07T19:54:24.913Z,99058
2018-05-07T19:56:54.677Z,99069
2018-05-07T19:59:24.456Z,99076
2018-05-07T20:01:54.208Z,99075
2018-05-07T20:04:23.963Z,99070
2018-05-07T20:06:53.671Z,99063
2018-05-07T20:09:23.381Z,99066
2018-05-07T20:11:53.155Z,99064
2018-05-07T20:14:22.855Z,99062
2018-05-07T20:16:52.574Z,99063
2018-05-07T20:19:22.340Z,99060
2018-05-07T20:21:52.094Z,99055
2018-05-07T20:24:21.800Z,99055
2018-05-07T20:26:51.545Z,99059
2018-05-07T20:29:21.256Z,99060
2018-05-07T20:31:50.992Z,99056
2018-05-07T20:34:20.722Z,99056
2018-05-07T20:36:50.466Z,99060
2018-05-07T20:39:20.184Z,99059
2018-05-07T20:41:49.881Z,99062
2018-05-07T20:44:20.571Z,99065
2018-05-07T20:46:50.258Z,99084
2018-05-07T20:49:19.995Z,99080
2018-05-07T20:51:49.741Z,99082
2018-05-07T20:54:19.460Z,99087
2018-05-07T20:56:50.079Z,99081
2018-05-07T20:59:20.573Z,99083
2018-05-07T21:01:50.437Z,99080
2018-05-07T21:04:20.861Z,99082
2018-05-07T21:06:51.024Z,99078
2018-05-07T21:09:21.637Z,99080
2018-05-07T21:11:51.930Z,99077
2018-05-07T21:14:22.276Z,99083
2018-05-07T21:16:52.777Z,99081
2018-05-07T21:19:22.860Z,99084
2018-05-07T21:21:53.304Z,99078
2018-05-07T21:24:23.311Z,99083
2018-05-07T21:26:53.750Z,99082
2018-05-07T21:29:24.041Z,99083
2018-05-07T21:31:54.564Z,99085
2018-05-07T21:34:24.923Z,99089
2018-05-07T21:36:54.950Z,99085
2018-05-07T21:39:25.319Z,99086
2018-05-07T21:41:55.616Z,99085
2018-05-07T21:44:26.057Z,99084
2018-05-07T21:46:56.277Z,99080
2018-05-07T21:49:26.586Z,99085
2018-05-07T21:51:56.477Z,99083
2018-05-07T21:54:27.927Z,99079
2018-05-07T21:56:57.912Z,99075
2018-05-07T21:59:28.175Z,99070
2018-05-07T22:01:58.915Z,99074
2018-05-07T22:04:29.414Z,99066
2018-05-07T22:06:59.759Z,99062
2018-05-07T22:09:30.385Z,99055
2018-05-07T22:12:00.807Z,99053
2018-05-07T22:14:31.209Z,99055
2018-05-07T22:17:01.838Z,99046
2018-05-07T22:19:31.807Z,99039
2018-05-07T22:22:02.424Z,99042
2018-05-07T22:24:32.624Z,99040
2018-05-07T22:27:02.773Z,99036
2018-05-07T22:29:32.885Z,99039
2018-05-07T22:32:03.664Z,99035
2018-05-07T22:34:33.810Z,99034
2018-05-07T22:37:03.711Z,99040
2018-05-07T22:39:34.334Z,99038
2018-05-07T22:42:05.163Z,99035
2018-05-07T22:44:35.708Z,99037
2018-05-07T22:47:06.439Z,99038
2018-05-07T22:49:36.412Z,99040
2018-05-07T22:52:06.863Z,99033
2018-05-07T22:54:37.287Z,99035
2018-05-07T22:57:07.913Z,99030
2018-05-07T22:59:38.362Z,99026
2018-05-07T23:02:08.804Z,99030
2018-05-07T23:04:39.384Z,99031
2018-05-07T23:07:09.819Z,99028
2018-05-07T23:09:40.108Z,99025
2018-05-07T23:12:10.675Z,99030
2018-05-07T23:14:41.075Z,99027
2018-05-07T23:17:11.227Z,99024
2018-05-07T23:19:41.387Z,99025
2018-05-07T23:22:11.906Z,99024
2018-05-07T23:24:42.326Z,99019
2018-05-07T23:27:13.145Z,99017
2018-05-07T23:29:43.499Z,99018
2018-05-07T23:32:13.545Z,99018
2018-05-07T23:34:43.927Z,99015
2018-05-07T23:37:14.715Z,99015
2018-05-07T23:39:44.665Z,99014
2018-05-07T23:42:15.201Z,99008
2018-05-07T23:44:45.409Z,99011
2018-05-07T23:47:15.904Z,99002
2018-05-07T23:49:46.322Z,98991
2018-05-07T23:52:16.394Z,98990
2018-05-07T23:54:46.949Z,98995
2018-05-07T23:57:17.681Z,98989
2018-05-07T23:59:48.120Z,98988
